sensor_id;sensor_type;location;lat;lon;timestamp;P1;durP1;ratioP1;P2;durP2;ratioP2
77409;SDS011;66481;51.332;22.804;2024-01-15T00:01:28;12.18;;;7.05;;
77409;SDS011;66481;51.332;22.804;2024-01-15T00:05:30;16.25;;;8.57;;
77409;SDS011;66481;51.332;22.804;2024-01-15T00:09:31;17.92;;;9.32;;
77409;SDS011;66481;51.332;22.804;2024-01-15T00:13:32;14.50;;;7.07;;
77409;SDS011;66481;51.332;22.804;2024-01-15T00:17:33;15.93;;;8.57;;
77409;SDS011;66481;51.332;22.804;2024-01-15T00:21:34;15.15;;;7.40;;
77409;SDS011;66481;51.332;22.804;2024-01-15T00:25:35;12.05;;;6.15;;
77409;SDS011;66481;51.332;22.804;2024-01-15T00:29:37;12.15;;;6.57;;
77409;SDS011;66481;51.332;22.804;2024-01-15T00:33:38;18.02;;;8.23;;
77409;SDS011;66481;51.332;22.804;2024-01-15T00:37:39;15.00;;;8.20;;
77409;SDS011;66481;51.332;22.804;2024-01-15T00:41:40;14.82;;;9.05;;
77409;SDS011;66481;51.332;22.804;2024-01-15T00:45:42;18.02;;;8.95;;
77409;SDS011;66481;51.332;22.804;2024-01-15T00:49:43;12.60;;;8.63;;
77409;SDS011;66481;51.332;22.804;2024-01-15T00:53:44;13.48;;;8.10;;
77409;SDS011;66481;51.332;22.804;2024-01-15T00:57:45;19.90;;;9.73;;
77409;SDS011;66481;51.332;22.804;2024-01-15T01:01:46;18.02;;;10.98;;
77409;SDS011;66481;51.332;22.804;2024-01-15T01:05:48;19.02;;;10.48;;
77409;SDS011;66481;51.332;22.804;2024-01-15T01:09:50;22.63;;;11.48;;
77409;SDS011;66481;51.332;22.804;2024-01-15T01:13:52;18.13;;;11.30;;
77409;SDS011;66481;51.332;22.804;2024-01-15T01:17:53;17.90;;;9.95;;
77409;SDS011;66481;51.332;22.804;2024-01-15T01:21:54;23.67;;;12.45;;
77409;SDS011;66481;51.332;22.804;2024-01-15T01:25:55;23.73;;;11.30;;
77409;SDS011;66481;51.332;22.804;2024-01-15T01:29:56;18.52;;;9.50;;
77409;SDS011;66481;51.332;22.804;2024-01-15T01:33:58;23.85;;;10.93;;
77409;SDS011;66481;51.332;22.804;2024-01-15T01:37:59;15.30;;;9.80;;
77409;SDS011;66481;51.332;22.804;2024-01-15T01:42:00;16.60;;;9.57;;
77409;SDS011;66481;51.332;22.804;2024-01-15T01:46:01;17.52;;;9.93;;
77409;SDS011;66481;51.332;22.804;2024-01-15T01:50:04;23.10;;;12.00;;
77409;SDS011;66481;51.332;22.804;2024-01-15T01:54:05;18.35;;;10.57;;
77409;SDS011;66481;51.332;22.804;2024-01-15T01:58:09;18.83;;;9.27;;
77409;SDS011;66481;51.332;22.804;2024-01-15T02:02:10;14.85;;;8.40;;
77409;SDS011;66481;51.332;22.804;2024-01-15T02:06:12;14.65;;;7.63;;
77409;SDS011;66481;51.332;22.804;2024-01-15T02:10:13;16.92;;;10.45;;
77409;SDS011;66481;51.332;22.804;2024-01-15T02:14:15;15.75;;;9.45;;
77409;SDS011;66481;51.332;22.804;2024-01-15T02:18:17;16.13;;;8.43;;
77409;SDS011;66481;51.332;22.804;2024-01-15T02:22:18;15.63;;;7.63;;
77409;SDS011;66481;51.332;22.804;2024-01-15T02:26:19;18.85;;;9.10;;
77409;SDS011;66481;51.332;22.804;2024-01-15T02:30:20;20.55;;;10.25;;
77409;SDS011;66481;51.332;22.804;2024-01-15T02:34:22;23.27;;;10.52;;
77409;SDS011;66481;51.332;22.804;2024-01-15T02:38:24;14.43;;;8.82;;
77409;SDS011;66481;51.332;22.804;2024-01-15T02:42:26;16.42;;;7.63;;
77409;SDS011;66481;51.332;22.804;2024-01-15T02:46:27;12.98;;;7.53;;
77409;SDS011;66481;51.332;22.804;2024-01-15T02:50:28;17.00;;;8.75;;
77409;SDS011;66481;51.332;22.804;2024-01-15T02:54:29;13.50;;;8.00;;
77409;SDS011;66481;51.332;22.804;2024-01-15T02:58:29;15.18;;;9.38;;
77409;SDS011;66481;51.332;22.804;2024-01-15T03:02:31;15.50;;;9.63;;
77409;SDS011;66481;51.332;22.804;2024-01-15T03:06:32;15.55;;;9.32;;
77409;SDS011;66481;51.332;22.804;2024-01-15T03:10:33;11.38;;;6.45;;
77409;SDS011;66481;51.332;22.804;2024-01-15T03:14:34;12.70;;;8.57;;
77409;SDS011;66481;51.332;22.804;2024-01-15T03:18:36;17.50;;;10.07;;
77409;SDS011;66481;51.332;22.804;2024-01-15T03:22:37;18.98;;;8.70;;
77409;SDS011;66481;51.332;22.804;2024-01-15T03:26:38;12.70;;;7.43;;
77409;SDS011;66481;51.332;22.804;2024-01-15T03:30:39;15.05;;;7.30;;
77409;SDS011;66481;51.332;22.804;2024-01-15T03:34:40;17.55;;;9.82;;
77409;SDS011;66481;51.332;22.804;2024-01-15T03:38:42;10.88;;;5.80;;
77409;SDS011;66481;51.332;22.804;2024-01-15T03:42:43;17.95;;;9.52;;
77409;SDS011;66481;51.332;22.804;2024-01-15T03:46:44;12.85;;;7.75;;
77409;SDS011;66481;51.332;22.804;2024-01-15T03:50:45;18.75;;;9.65;;
77409;SDS011;66481;51.332;22.804;2024-01-15T03:54:46;11.77;;;6.47;;
77409;SDS011;66481;51.332;22.804;2024-01-15T03:58:47;13.25;;;7.97;;
77409;SDS011;66481;51.332;22.804;2024-01-15T04:02:48;11.45;;;5.88;;
77409;SDS011;66481;51.332;22.804;2024-01-15T04:06:49;11.80;;;6.95;;
77409;SDS011;66481;51.332;22.804;2024-01-15T04:10:50;10.95;;;6.78;;
77409;SDS011;66481;51.332;22.804;2024-01-15T04:14:51;10.68;;;6.93;;
77409;SDS011;66481;51.332;22.804;2024-01-15T04:18:52;10.80;;;6.35;;
77409;SDS011;66481;51.332;22.804;2024-01-15T04:22:53;10.00;;;5.32;;
77409;SDS011;66481;51.332;22.804;2024-01-15T04:26:54;8.13;;;5.95;;
77409;SDS011;66481;51.332;22.804;2024-01-15T04:30:55;13.18;;;6.72;;
77409;SDS011;66481;51.332;22.804;2024-01-15T04:34:57;10.30;;;5.90;;
77409;SDS011;66481;51.332;22.804;2024-01-15T04:38:58;8.90;;;4.55;;
77409;SDS011;66481;51.332;22.804;2024-01-15T04:42:59;9.32;;;5.88;;
77409;SDS011;66481;51.332;22.804;2024-01-15T04:47:00;11.73;;;6.63;;
77409;SDS011;66481;51.332;22.804;2024-01-15T04:51:03;9.48;;;4.57;;
77409;SDS011;66481;51.332;22.804;2024-01-15T04:55:05;8.38;;;5.88;;
77409;SDS011;66481;51.332;22.804;2024-01-15T04:59:06;11.73;;;5.70;;
77409;SDS011;66481;51.332;22.804;2024-01-15T05:03:08;9.02;;;4.57;;
77409;SDS011;66481;51.332;22.804;2024-01-15T05:07:09;5.72;;;4.10;;
77409;SDS011;66481;51.332;22.804;2024-01-15T05:11:10;8.63;;;4.90;;
77409;SDS011;66481;51.332;22.804;2024-01-15T05:15:12;8.27;;;4.70;;
77409;SDS011;66481;51.332;22.804;2024-01-15T05:19:13;7.53;;;4.75;;
77409;SDS011;66481;51.332;22.804;2024-01-15T05:23:15;7.75;;;3.72;;
77409;SDS011;66481;51.332;22.804;2024-01-15T05:27:16;6.72;;;4.18;;
77409;SDS011;66481;51.332;22.804;2024-01-15T05:31:18;8.30;;;4.80;;
77409;SDS011;66481;51.332;22.804;2024-01-15T05:35:20;9.50;;;4.95;;
77409;SDS011;66481;51.332;22.804;2024-01-15T05:39:21;9.00;;;4.80;;
77409;SDS011;66481;51.332;22.804;2024-01-15T05:43:22;9.85;;;5.93;;
77409;SDS011;66481;51.332;22.804;2024-01-15T05:47:23;13.70;;;6.60;;
77409;SDS011;66481;51.332;22.804;2024-01-15T05:51:24;9.30;;;6.18;;
77409;SDS011;66481;51.332;22.804;2024-01-15T05:55:26;9.90;;;5.50;;
77409;SDS011;66481;51.332;22.804;2024-01-15T05:59:27;9.50;;;5.22;;
77409;SDS011;66481;51.332;22.804;2024-01-15T06:03:32;7.32;;;5.40;;
77409;SDS011;66481;51.332;22.804;2024-01-15T06:07:34;8.20;;;4.53;;
77409;SDS011;66481;51.332;22.804;2024-01-15T06:11:37;6.38;;;4.28;;
77409;SDS011;66481;51.332;22.804;2024-01-15T06:15:38;7.90;;;5.47;;
77409;SDS011;66481;51.332;22.804;2024-01-15T06:19:40;13.65;;;6.15;;
77409;SDS011;66481;51.332;22.804;2024-01-15T06:23:41;10.98;;;4.00;;
77409;SDS011;66481;51.332;22.804;2024-01-15T06:27:43;6.82;;;4.60;;
77409;SDS011;66481;51.332;22.804;2024-01-15T06:31:47;6.13;;;4.00;;
77409;SDS011;66481;51.332;22.804;2024-01-15T06:35:48;6.63;;;4.65;;
77409;SDS011;66481;51.332;22.804;2024-01-15T06:39:50;8.00;;;3.53;;
77409;SDS011;66481;51.332;22.804;2024-01-15T06:43:51;5.53;;;3.90;;
77409;SDS011;66481;51.332;22.804;2024-01-15T06:47:52;7.50;;;4.78;;
77409;SDS011;66481;51.332;22.804;2024-01-15T06:51:54;5.70;;;2.92;;
77409;SDS011;66481;51.332;22.804;2024-01-15T06:55:55;7.50;;;3.60;;
77409;SDS011;66481;51.332;22.804;2024-01-15T06:59:56;4.72;;;2.88;;
77409;SDS011;66481;51.332;22.804;2024-01-15T07:03:57;6.45;;;3.80;;
77409;SDS011;66481;51.332;22.804;2024-01-15T07:07:58;6.30;;;3.88;;
77409;SDS011;66481;51.332;22.804;2024-01-15T07:12:00;10.40;;;5.47;;
77409;SDS011;66481;51.332;22.804;2024-01-15T07:16:01;8.15;;;4.05;;
77409;SDS011;66481;51.332;22.804;2024-01-15T07:20:02;9.57;;;5.70;;
77409;SDS011;66481;51.332;22.804;2024-01-15T07:24:04;6.65;;;4.75;;
77409;SDS011;66481;51.332;22.804;2024-01-15T07:28:05;7.88;;;4.75;;
77409;SDS011;66481;51.332;22.804;2024-01-15T07:32:07;7.03;;;4.68;;
77409;SDS011;66481;51.332;22.804;2024-01-15T07:36:08;6.32;;;4.00;;
77409;SDS011;66481;51.332;22.804;2024-01-15T07:40:09;7.53;;;5.35;;
77409;SDS011;66481;51.332;22.804;2024-01-15T07:44:11;5.43;;;3.60;;
77409;SDS011;66481;51.332;22.804;2024-01-15T07:48:15;6.25;;;4.00;;
77409;SDS011;66481;51.332;22.804;2024-01-15T07:52:16;5.80;;;2.72;;
77409;SDS011;66481;51.332;22.804;2024-01-15T07:56:17;5.50;;;3.17;;
77409;SDS011;66481;51.332;22.804;2024-01-15T08:00:19;8.00;;;4.30;;
77409;SDS011;66481;51.332;22.804;2024-01-15T08:04:20;7.53;;;4.68;;
77409;SDS011;66481;51.332;22.804;2024-01-15T08:08:22;4.93;;;2.88;;
77409;SDS011;66481;51.332;22.804;2024-01-15T08:12:24;5.13;;;3.25;;
77409;SDS011;66481;51.332;22.804;2024-01-15T08:16:25;6.32;;;4.10;;
77409;SDS011;66481;51.332;22.804;2024-01-15T08:20:26;5.88;;;2.88;;
77409;SDS011;66481;51.332;22.804;2024-01-15T08:24:27;5.85;;;3.47;;
77409;SDS011;66481;51.332;22.804;2024-01-15T08:28:29;6.80;;;3.45;;
77409;SDS011;66481;51.332;22.804;2024-01-15T08:32:31;7.65;;;5.65;;
77409;SDS011;66481;51.332;22.804;2024-01-15T08:36:32;10.07;;;4.68;;
77409;SDS011;66481;51.332;22.804;2024-01-15T08:40:35;9.90;;;4.85;;
77409;SDS011;66481;51.332;22.804;2024-01-15T08:44:36;9.60;;;4.68;;
77409;SDS011;66481;51.332;22.804;2024-01-15T08:48:37;8.20;;;3.72;;
77409;SDS011;66481;51.332;22.804;2024-01-15T08:52:38;5.55;;;4.03;;
77409;SDS011;66481;51.332;22.804;2024-01-15T08:56:39;6.78;;;4.20;;
77409;SDS011;66481;51.332;22.804;2024-01-15T09:00:41;8.30;;;5.20;;
77409;SDS011;66481;51.332;22.804;2024-01-15T09:04:42;7.10;;;5.00;;
77409;SDS011;66481;51.332;22.804;2024-01-15T09:08:44;8.27;;;6.70;;
77409;SDS011;66481;51.332;22.804;2024-01-15T09:12:45;7.10;;;4.43;;
77409;SDS011;66481;51.332;22.804;2024-01-15T09:16:47;7.57;;;4.40;;
77409;SDS011;66481;51.332;22.804;2024-01-15T09:20:48;6.80;;;3.92;;
77409;SDS011;66481;51.332;22.804;2024-01-15T09:24:49;6.15;;;3.83;;
77409;SDS011;66481;51.332;22.804;2024-01-15T09:28:51;9.50;;;4.93;;
77409;SDS011;66481;51.332;22.804;2024-01-15T09:32:52;7.45;;;5.85;;
77409;SDS011;66481;51.332;22.804;2024-01-15T09:36:54;9.00;;;5.18;;
77409;SDS011;66481;51.332;22.804;2024-01-15T09:40:55;6.00;;;3.60;;
77409;SDS011;66481;51.332;22.804;2024-01-15T09:44:56;9.02;;;5.25;;
77409;SDS011;66481;51.332;22.804;2024-01-15T09:48:58;9.55;;;5.47;;
77409;SDS011;66481;51.332;22.804;2024-01-15T09:53:00;6.57;;;4.43;;
77409;SDS011;66481;51.332;22.804;2024-01-15T09:57:02;6.28;;;4.25;;
77409;SDS011;66481;51.332;22.804;2024-01-15T10:01:04;6.78;;;4.50;;
77409;SDS011;66481;51.332;22.804;2024-01-15T10:05:06;6.97;;;4.70;;
77409;SDS011;66481;51.332;22.804;2024-01-15T10:09:07;7.53;;;4.30;;
77409;SDS011;66481;51.332;22.804;2024-01-15T10:13:08;6.22;;;3.83;;
77409;SDS011;66481;51.332;22.804;2024-01-15T10:17:13;6.28;;;3.60;;
77409;SDS011;66481;51.332;22.804;2024-01-15T10:21:15;7.03;;;4.10;;
77409;SDS011;66481;51.332;22.804;2024-01-15T10:25:17;6.95;;;4.50;;
77409;SDS011;66481;51.332;22.804;2024-01-15T10:29:24;7.30;;;4.10;;
77409;SDS011;66481;51.332;22.804;2024-01-15T10:33:25;6.05;;;4.00;;
77409;SDS011;66481;51.332;22.804;2024-01-15T10:37:27;8.85;;;4.90;;
77409;SDS011;66481;51.332;22.804;2024-01-15T10:41:28;7.50;;;4.93;;
77409;SDS011;66481;51.332;22.804;2024-01-15T10:45:29;7.13;;;4.40;;
77409;SDS011;66481;51.332;22.804;2024-01-15T10:49:31;7.07;;;3.42;;
77409;SDS011;66481;51.332;22.804;2024-01-15T10:53:33;6.25;;;4.10;;
77409;SDS011;66481;51.332;22.804;2024-01-15T10:57:37;6.13;;;3.38;;
77409;SDS011;66481;51.332;22.804;2024-01-15T11:01:38;8.73;;;4.07;;
77409;SDS011;66481;51.332;22.804;2024-01-15T11:05:43;7.22;;;4.00;;
77409;SDS011;66481;51.332;22.804;2024-01-15T11:09:45;6.97;;;3.60;;
77409;SDS011;66481;51.332;22.804;2024-01-15T11:13:47;9.02;;;3.40;;
77409;SDS011;66481;51.332;22.804;2024-01-15T11:18:01;4.85;;;3.60;;
77409;SDS011;66481;51.332;22.804;2024-01-15T11:22:04;5.55;;;3.13;;
77409;SDS011;66481;51.332;22.804;2024-01-15T11:26:26;6.75;;;4.18;;
77409;SDS011;66481;51.332;22.804;2024-01-15T11:30:33;9.00;;;4.82;;
77409;SDS011;66481;51.332;22.804;2024-01-15T11:34:58;6.55;;;4.07;;
77409;SDS011;66481;51.332;22.804;2024-01-15T11:38:59;5.90;;;3.45;;
77409;SDS011;66481;51.332;22.804;2024-01-15T11:43:00;6.90;;;4.07;;
77409;SDS011;66481;51.332;22.804;2024-01-15T11:47:06;8.32;;;3.63;;
77409;SDS011;66481;51.332;22.804;2024-01-15T11:51:10;6.40;;;5.25;;
77409;SDS011;66481;51.332;22.804;2024-01-15T11:59:20;4.03;;;3.47;;
77409;SDS011;66481;51.332;22.804;2024-01-15T12:03:21;8.23;;;4.10;;
77409;SDS011;66481;51.332;22.804;2024-01-15T12:07:23;7.47;;;4.32;;
77409;SDS011;66481;51.332;22.804;2024-01-15T12:11:24;10.00;;;4.70;;
77409;SDS011;66481;51.332;22.804;2024-01-15T12:15:28;6.25;;;3.58;;
77409;SDS011;66481;51.332;22.804;2024-01-15T12:19:30;5.68;;;3.33;;
77409;SDS011;66481;51.332;22.804;2024-01-15T12:23:31;4.78;;;2.88;;
77409;SDS011;66481;51.332;22.804;2024-01-15T12:27:32;5.95;;;3.97;;
77409;SDS011;66481;51.332;22.804;2024-01-15T12:31:34;7.00;;;3.75;;
77409;SDS011;66481;51.332;22.804;2024-01-15T12:35:35;7.07;;;4.00;;
77409;SDS011;66481;51.332;22.804;2024-01-15T12:39:37;7.07;;;3.88;;
77409;SDS011;66481;51.332;22.804;2024-01-15T12:43:38;4.32;;;3.80;;
77409;SDS011;66481;51.332;22.804;2024-01-15T12:47:39;6.13;;;3.92;;
77409;SDS011;66481;51.332;22.804;2024-01-15T12:51:42;5.35;;;4.60;;
77409;SDS011;66481;51.332;22.804;2024-01-15T12:55:43;4.20;;;3.17;;
77409;SDS011;66481;51.332;22.804;2024-01-15T12:59:44;5.13;;;3.17;;
77409;SDS011;66481;51.332;22.804;2024-01-15T13:03:46;6.40;;;3.08;;
77409;SDS011;66481;51.332;22.804;2024-01-15T13:07:47;8.05;;;4.13;;
77409;SDS011;66481;51.332;22.804;2024-01-15T13:11:48;8.40;;;4.07;;
77409;SDS011;66481;51.332;22.804;2024-01-15T13:15:49;5.18;;;3.20;;
77409;SDS011;66481;51.332;22.804;2024-01-15T13:19:50;7.68;;;4.00;;
77409;SDS011;66481;51.332;22.804;2024-01-15T13:23:52;9.65;;;3.58;;
77409;SDS011;66481;51.332;22.804;2024-01-15T13:27:53;5.93;;;3.63;;
77409;SDS011;66481;51.332;22.804;2024-01-15T13:31:54;7.57;;;4.47;;
77409;SDS011;66481;51.332;22.804;2024-01-15T13:35:56;7.10;;;4.90;;
77409;SDS011;66481;51.332;22.804;2024-01-15T13:39:57;6.75;;;4.25;;
77409;SDS011;66481;51.332;22.804;2024-01-15T13:43:58;10.68;;;6.03;;
77409;SDS011;66481;51.332;22.804;2024-01-15T13:48:00;8.02;;;4.22;;
77409;SDS011;66481;51.332;22.804;2024-01-15T13:52:02;9.07;;;4.82;;
77409;SDS011;66481;51.332;22.804;2024-01-15T13:56:05;10.60;;;4.60;;
77409;SDS011;66481;51.332;22.804;2024-01-15T14:00:07;8.45;;;4.18;;
77409;SDS011;66481;51.332;22.804;2024-01-15T14:04:12;8.27;;;5.00;;
77409;SDS011;66481;51.332;22.804;2024-01-15T14:08:13;8.80;;;4.15;;
77409;SDS011;66481;51.332;22.804;2024-01-15T14:12:15;9.70;;;4.90;;
77409;SDS011;66481;51.332;22.804;2024-01-15T14:16:16;8.00;;;4.22;;
77409;SDS011;66481;51.332;22.804;2024-01-15T14:20:17;8.85;;;4.88;;
77409;SDS011;66481;51.332;22.804;2024-01-15T14:24:18;10.63;;;7.28;;
77409;SDS011;66481;51.332;22.804;2024-01-15T14:28:19;9.95;;;6.20;;
77409;SDS011;66481;51.332;22.804;2024-01-15T14:32:20;14.73;;;6.93;;
77409;SDS011;66481;51.332;22.804;2024-01-15T14:36:22;9.02;;;5.32;;
77409;SDS011;66481;51.332;22.804;2024-01-15T14:40:25;8.68;;;5.38;;
77409;SDS011;66481;51.332;22.804;2024-01-15T14:44:26;9.15;;;5.25;;
77409;SDS011;66481;51.332;22.804;2024-01-15T14:48:29;12.25;;;6.43;;
77409;SDS011;66481;51.332;22.804;2024-01-15T14:52:33;12.15;;;7.25;;
77409;SDS011;66481;51.332;22.804;2024-01-15T14:56:35;8.68;;;5.72;;
77409;SDS011;66481;51.332;22.804;2024-01-15T15:00:37;8.32;;;4.88;;
77409;SDS011;66481;51.332;22.804;2024-01-15T15:04:38;9.48;;;4.65;;
77409;SDS011;66481;51.332;22.804;2024-01-15T15:08:39;11.82;;;5.55;;
77409;SDS011;66481;51.332;22.804;2024-01-15T15:12:41;9.73;;;6.32;;
77409;SDS011;66481;51.332;22.804;2024-01-15T15:16:43;10.00;;;6.03;;
77409;SDS011;66481;51.332;22.804;2024-01-15T15:20:45;11.45;;;5.75;;
77409;SDS011;66481;51.332;22.804;2024-01-15T15:24:46;8.10;;;6.25;;
77409;SDS011;66481;51.332;22.804;2024-01-15T15:28:48;11.30;;;6.75;;
77409;SDS011;66481;51.332;22.804;2024-01-15T15:36:53;10.82;;;6.38;;
77409;SDS011;66481;51.332;22.804;2024-01-15T15:40:55;9.90;;;5.30;;
77409;SDS011;66481;51.332;22.804;2024-01-15T15:44:57;13.90;;;5.88;;
77409;SDS011;66481;51.332;22.804;2024-01-15T15:48:58;13.13;;;7.75;;
77409;SDS011;66481;51.332;22.804;2024-01-15T15:53:00;13.30;;;7.13;;
77409;SDS011;66481;51.332;22.804;2024-01-15T15:57:02;9.60;;;6.97;;
77409;SDS011;66481;51.332;22.804;2024-01-15T16:01:04;12.15;;;7.82;;
77409;SDS011;66481;51.332;22.804;2024-01-15T16:05:07;19.27;;;8.63;;
77409;SDS011;66481;51.332;22.804;2024-01-15T16:09:11;14.10;;;6.38;;
77409;SDS011;66481;51.332;22.804;2024-01-15T16:13:13;15.73;;;8.80;;
77409;SDS011;66481;51.332;22.804;2024-01-15T16:17:14;12.43;;;7.47;;
77409;SDS011;66481;51.332;22.804;2024-01-15T16:21:16;13.95;;;6.20;;
77409;SDS011;66481;51.332;22.804;2024-01-15T16:25:17;18.98;;;8.70;;
77409;SDS011;66481;51.332;22.804;2024-01-15T16:29:20;10.10;;;6.82;;
77409;SDS011;66481;51.332;22.804;2024-01-15T16:33:22;12.48;;;7.65;;
77409;SDS011;66481;51.332;22.804;2024-01-15T16:37:23;11.48;;;7.65;;
77409;SDS011;66481;51.332;22.804;2024-01-15T16:41:25;9.30;;;5.43;;
77409;SDS011;66481;51.332;22.804;2024-01-15T16:45:27;17.20;;;9.00;;
77409;SDS011;66481;51.332;22.804;2024-01-15T16:49:30;16.70;;;9.65;;
77409;SDS011;66481;51.332;22.804;2024-01-15T16:53:32;16.77;;;8.60;;
77409;SDS011;66481;51.332;22.804;2024-01-15T16:57:34;17.02;;;8.55;;
77409;SDS011;66481;51.332;22.804;2024-01-15T17:01:35;17.60;;;10.85;;
77409;SDS011;66481;51.332;22.804;2024-01-15T17:05:37;17.10;;;8.80;;
77409;SDS011;66481;51.332;22.804;2024-01-15T17:09:42;14.73;;;8.73;;
77409;SDS011;66481;51.332;22.804;2024-01-15T17:13:44;15.70;;;8.77;;
77409;SDS011;66481;51.332;22.804;2024-01-15T17:17:46;15.07;;;8.43;;
77409;SDS011;66481;51.332;22.804;2024-01-15T17:21:48;18.40;;;9.02;;
77409;SDS011;66481;51.332;22.804;2024-01-15T17:25:49;14.07;;;10.23;;
77409;SDS011;66481;51.332;22.804;2024-01-15T17:29:53;17.13;;;9.07;;
77409;SDS011;66481;51.332;22.804;2024-01-15T17:33:58;17.08;;;7.15;;
77409;SDS011;66481;51.332;22.804;2024-01-15T17:37:59;16.88;;;7.10;;
77409;SDS011;66481;51.332;22.804;2024-01-15T17:42:01;15.45;;;6.93;;
77409;SDS011;66481;51.332;22.804;2024-01-15T17:46:04;13.20;;;6.53;;
77409;SDS011;66481;51.332;22.804;2024-01-15T17:50:05;13.00;;;9.02;;
77409;SDS011;66481;51.332;22.804;2024-01-15T17:54:10;12.05;;;6.03;;
77409;SDS011;66481;51.332;22.804;2024-01-15T17:58:11;13.20;;;8.10;;
77409;SDS011;66481;51.332;22.804;2024-01-15T18:02:13;12.35;;;7.15;;
77409;SDS011;66481;51.332;22.804;2024-01-15T18:06:15;8.93;;;5.45;;
77409;SDS011;66481;51.332;22.804;2024-01-15T18:10:17;13.38;;;6.85;;
77409;SDS011;66481;51.332;22.804;2024-01-15T18:14:18;16.00;;;7.93;;
77409;SDS011;66481;51.332;22.804;2024-01-15T18:18:20;14.60;;;7.65;;
77409;SDS011;66481;51.332;22.804;2024-01-15T18:22:21;13.82;;;6.13;;
77409;SDS011;66481;51.332;22.804;2024-01-15T18:26:23;14.00;;;7.07;;
77409;SDS011;66481;51.332;22.804;2024-01-15T18:30:25;12.95;;;6.97;;
77409;SDS011;66481;51.332;22.804;2024-01-15T18:34:26;16.33;;;8.93;;
77409;SDS011;66481;51.332;22.804;2024-01-15T18:38:28;11.25;;;5.72;;
77409;SDS011;66481;51.332;22.804;2024-01-15T18:42:31;10.23;;;6.30;;
77409;SDS011;66481;51.332;22.804;2024-01-15T18:46:33;16.40;;;9.32;;
77409;SDS011;66481;51.332;22.804;2024-01-15T18:50:36;12.05;;;7.00;;
77409;SDS011;66481;51.332;22.804;2024-01-15T18:54:38;9.63;;;6.28;;
77409;SDS011;66481;51.332;22.804;2024-01-15T18:58:41;14.73;;;7.88;;
77409;SDS011;66481;51.332;22.804;2024-01-15T19:02:44;16.63;;;8.25;;
77409;SDS011;66481;51.332;22.804;2024-01-15T19:06:46;16.75;;;6.90;;
77409;SDS011;66481;51.332;22.804;2024-01-15T19:10:47;15.13;;;7.10;;
77409;SDS011;66481;51.332;22.804;2024-01-15T19:14:49;13.10;;;8.27;;
77409;SDS011;66481;51.332;22.804;2024-01-15T19:18:51;14.18;;;6.22;;
77409;SDS011;66481;51.332;22.804;2024-01-15T19:22:53;23.25;;;12.60;;
77409;SDS011;66481;51.332;22.804;2024-01-15T19:26:54;14.50;;;8.30;;
77409;SDS011;66481;51.332;22.804;2024-01-15T19:30:58;18.38;;;9.85;;
77409;SDS011;66481;51.332;22.804;2024-01-15T19:35:00;15.50;;;7.95;;
77409;SDS011;66481;51.332;22.804;2024-01-15T19:39:02;14.07;;;6.72;;
77409;SDS011;66481;51.332;22.804;2024-01-15T19:43:03;11.48;;;6.60;;
77409;SDS011;66481;51.332;22.804;2024-01-15T19:47:05;12.32;;;5.88;;
77409;SDS011;66481;51.332;22.804;2024-01-15T19:51:08;14.90;;;6.43;;
77409;SDS011;66481;51.332;22.804;2024-01-15T19:55:11;13.93;;;7.55;;
77409;SDS011;66481;51.332;22.804;2024-01-15T19:59:13;10.95;;;5.57;;
77409;SDS011;66481;51.332;22.804;2024-01-15T20:03:14;12.70;;;5.88;;
77409;SDS011;66481;51.332;22.804;2024-01-15T20:07:16;17.60;;;7.72;;
77409;SDS011;66481;51.332;22.804;2024-01-15T20:11:18;16.17;;;7.55;;
77409;SDS011;66481;51.332;22.804;2024-01-15T20:15:20;15.00;;;6.68;;
77409;SDS011;66481;51.332;22.804;2024-01-15T20:19:23;15.73;;;7.65;;
77409;SDS011;66481;51.332;22.804;2024-01-15T20:23:25;14.68;;;6.28;;
77409;SDS011;66481;51.332;22.804;2024-01-15T20:27:27;15.82;;;9.07;;
77409;SDS011;66481;51.332;22.804;2024-01-15T20:31:29;15.98;;;6.97;;
77409;SDS011;66481;51.332;22.804;2024-01-15T20:35:31;13.45;;;7.43;;
77409;SDS011;66481;51.332;22.804;2024-01-15T20:39:32;13.90;;;7.97;;
77409;SDS011;66481;51.332;22.804;2024-01-15T20:43:36;15.30;;;7.28;;
77409;SDS011;66481;51.332;22.804;2024-01-15T20:47:39;11.88;;;4.65;;
77409;SDS011;66481;51.332;22.804;2024-01-15T20:51:40;10.50;;;5.28;;
77409;SDS011;66481;51.332;22.804;2024-01-15T20:55:45;12.75;;;5.60;;
77409;SDS011;66481;51.332;22.804;2024-01-15T20:59:47;13.82;;;6.35;;
77409;SDS011;66481;51.332;22.804;2024-01-15T21:03:49;11.45;;;5.38;;
77409;SDS011;66481;51.332;22.804;2024-01-15T21:07:52;9.70;;;6.25;;
77409;SDS011;66481;51.332;22.804;2024-01-15T21:11:54;13.40;;;5.97;;
77409;SDS011;66481;51.332;22.804;2024-01-15T21:15:55;12.35;;;5.68;;
77409;SDS011;66481;51.332;22.804;2024-01-15T21:19:57;9.75;;;5.13;;
77409;SDS011;66481;51.332;22.804;2024-01-15T21:28:06;12.65;;;7.43;;
77409;SDS011;66481;51.332;22.804;2024-01-15T21:32:08;10.43;;;5.47;;
77409;SDS011;66481;51.332;22.804;2024-01-15T21:36:10;13.52;;;6.80;;
77409;SDS011;66481;51.332;22.804;2024-01-15T21:40:12;12.63;;;5.43;;
77409;SDS011;66481;51.332;22.804;2024-01-15T21:44:14;11.23;;;5.32;;
77409;SDS011;66481;51.332;22.804;2024-01-15T21:48:17;11.18;;;5.70;;
77409;SDS011;66481;51.332;22.804;2024-01-15T21:52:18;7.32;;;5.60;;
77409;SDS011;66481;51.332;22.804;2024-01-15T21:56:19;5.43;;;4.07;;
77409;SDS011;66481;51.332;22.804;2024-01-15T22:00:21;8.50;;;3.88;;
77409;SDS011;66481;51.332;22.804;2024-01-15T22:04:23;8.38;;;5.22;;
77409;SDS011;66481;51.332;22.804;2024-01-15T22:08:25;9.10;;;5.07;;
77409;SDS011;66481;51.332;22.804;2024-01-15T22:12:26;6.13;;;4.13;;
77409;SDS011;66481;51.332;22.804;2024-01-15T22:16:28;9.30;;;4.22;;
77409;SDS011;66481;51.332;22.804;2024-01-15T22:20:29;11.50;;;6.15;;
77409;SDS011;66481;51.332;22.804;2024-01-15T22:24:31;9.55;;;4.82;;
77409;SDS011;66481;51.332;22.804;2024-01-15T22:28:32;10.32;;;4.72;;
77409;SDS011;66481;51.332;22.804;2024-01-15T22:32:35;5.93;;;3.30;;
77409;SDS011;66481;51.332;22.804;2024-01-15T22:36:36;9.63;;;4.50;;
77409;SDS011;66481;51.332;22.804;2024-01-15T22:40:37;5.40;;;3.45;;
77409;SDS011;66481;51.332;22.804;2024-01-15T22:44:39;8.48;;;3.83;;
77409;SDS011;66481;51.332;22.804;2024-01-15T22:48:40;8.07;;;4.22;;
77409;SDS011;66481;51.332;22.804;2024-01-15T22:52:41;7.55;;;4.60;;
77409;SDS011;66481;51.332;22.804;2024-01-15T22:56:44;10.63;;;5.80;;
77409;SDS011;66481;51.332;22.804;2024-01-15T23:00:45;6.30;;;3.08;;
77409;SDS011;66481;51.332;22.804;2024-01-15T23:04:47;7.85;;;4.40;;
77409;SDS011;66481;51.332;22.804;2024-01-15T23:08:48;5.40;;;2.90;;
77409;SDS011;66481;51.332;22.804;2024-01-15T23:12:50;3.30;;;3.08;;
77409;SDS011;66481;51.332;22.804;2024-01-15T23:16:51;6.30;;;3.40;;
77409;SDS011;66481;51.332;22.804;2024-01-15T23:20:53;6.95;;;4.15;;
77409;SDS011;66481;51.332;22.804;2024-01-15T23:24:54;4.40;;;2.28;;
77409;SDS011;66481;51.332;22.804;2024-01-15T23:28:55;6.47;;;2.75;;
77409;SDS011;66481;51.332;22.804;2024-01-15T23:32:56;3.60;;;1.90;;
77409;SDS011;66481;51.332;22.804;2024-01-15T23:36:58;4.03;;;2.40;;
77409;SDS011;66481;51.332;22.804;2024-01-15T23:40:59;4.60;;;1.95;;
77409;SDS011;66481;51.332;22.804;2024-01-15T23:45:01;5.18;;;2.30;;
77409;SDS011;66481;51.332;22.804;2024-01-15T23:49:02;2.40;;;1.73;;
77409;SDS011;66481;51.332;22.804;2024-01-15T23:53:04;6.60;;;1.33;;
77409;SDS011;66481;51.332;22.804;2024-01-15T23:57:05;1.95;;;1.13;;
